Wakita, Oklahoma
Current Conditions -  °F | °C
As of 10:15 PM on Wednesday 22 Oct 2014 (Local Time) from KBKN Reporting Station
Moderate Rain Moderate Rain  
Wind Chill: 63°   Ceiling: 3300
Heat Index: 63°   Visibility: 5mi
Dew Point: 61°   Wind: 12mph
Humidity: 94%   Direction: 250°WSW
Pressure: 30.11"   Gusts: NA
Location:  36.88°N, 97.92°W
Report Text: KBKN 230315Z AUTO 25010KT 5SM RA OVC033 17/16 A3011 RMK AO2 P0002
Loading
Personal Weather Stations






























Interactive Weather Map
Tropical Storm Tracking
New forecast layout! Learn more

10-Day Weather Forecast

Advertisements
Track Severe Weather on mobile